Kirley, South Dakota
Current Conditions -  °F | °C
As of 9:55 AM on Monday 22 Dec 2014 (Local Time) from KPHP Reporting Station
Overcast Overcast  
Wind Chill: 30°   Ceiling: 3700
Heat Index: 40°   Visibility: 10mi
Dew Point: 28°   Wind: 22mph
Humidity: 63%   Direction: 310°NW
Pressure: 29.52"   Gusts: 33mph
Location:  44.3169°N, 101.368°W
Report Text: KPHP 221655Z AUTO 31019G29KT 10SM OVC037 04/M02 A2952 RMK AO2 PK WND 32030/1629 SLP002 T00441022
Loading
Personal Weather Stations






























Interactive Weather Map New forecast layout! Learn more

10-Day Weather Forecast

Advertisements
Track Severe Weather on mobile